Alanya, Turkey
Current Conditions -  °F | °C
As of 2:50 AM on Saturday 29 Nov 2014 (Local Time) from LTAI Reporting Station
Few Clouds Few Clouds  
Wind Chill:   Ceiling: Unl
Heat Index:   Visibility: 6mi
Dew Point:   Wind: 6mph
Humidity: 81%   Direction: 350°N
Pressure: 30.24"   Gusts: NA
Location:  36.56°N, 32°E
Report Text: LTAI 282350Z 35005KT 9999 FEW030 08/05 Q1024 NOSIG
Loading
Personal Weather Stations






























Interactive Weather Map New forecast layout! Learn more

10-Day Weather Forecast

Advertisements
Track Severe Weather on mobile